| time (UTC) | temp F | wind direction | speed MPH | gust MPH | rain 1hr in | rain 24hr in | rain mn in | humidity % | barometer mb |
| 20260505100005 | 62 | 117 | 12.0 | 14.0 | 0.00 | 0.00 | 0.00 | 96 | |
| 20260505093958 | 62 | 137 | 8.0 | 11.0 | 0.00 | 0.00 | 0.00 | 96 | |
| 20260505093708 | 62 | 111 | 4.0 | 17.0 | 0.00 | 0.00 | 0.00 | 96 | |
| 20260505093403 | 62 | 96 | 8.0 | 14.0 | 0.00 | 0.00 | 0.00 | 96 | |
| 20260505093108 | 62 | 122 | 4.0 | 15.0 | 0.00 | 0.00 | 0.00 | 96 | |
| 20260505092808 | 62 | 150 | 6.0 | 20.0 | 0.00 | 0.00 | 0.00 | 96 | |
| 20260505092507 | 62 | 115 | 9.0 | 16.0 | 0.00 | 0.00 | 0.00 | 96 | |
| 20260505092206 | 62 | 135 | 5.0 | 16.0 | 0.00 | 0.00 | 0.00 | 95 | |
| 20260505091905 | 62 | 111 | 9.0 | 11.0 | 0.00 | 0.00 | 0.00 | 95 | |
| 20260505091605 | 62 | 118 | 4.0 | 10.0 | 0.00 | 0.00 | 0.00 | 95 | |
| 20260505091303 | 62 | 145 | 11.0 | 16.0 | 0.00 | 0.00 | 0.00 | 95 | |
| 20260505091001 | 62 | 108 | 6.0 | 14.0 | 0.00 | 0.00 | 0.00 | 95 | |
| 20260505090701 | 62 | 127 | 7.0 | 12.0 | 0.00 | 0.00 | 0.00 | 95 | |
| 20260505090359 | 62 | 123 | 10.0 | 20.0 | 0.00 | 0.00 | 0.00 | 96 | |
| 20260505090109 | 62 | 127 | 7.0 | 12.0 | 0.00 | 0.00 | 0.00 | 96 | |
| 20260505090001 | 62 | 58 | 7.0 | 9.0 | 0.00 | 0.00 | 0.00 | 96 | |
| 20260505084302 | 62 | 127 | 5.0 | 9.0 | 0.00 | 0.00 | 0.00 | 95 | |
| 20260505084004 | 62 | 143 | 2.0 | 7.0 | 0.00 | 0.00 | 0.00 | 95 | |
| 20260505083710 | 62 | 123 | 9.0 | 18.0 | 0.00 | 0.00 | 0.00 | 95 | |
| 20260505083407 | 62 | 113 | 5.0 | 8.0 | 0.00 | 0.00 | 0.00 | 95 | |
| 20260505083105 | 62 | 75 | 1.0 | 9.0 | 0.00 | 0.00 | 0.00 | 96 | |
| 20260505082804 | 62 | 130 | 13.0 | 18.0 | 0.00 | 0.00 | 0.00 | 96 | |
| 20260505082504 | 62 | 104 | 7.0 | 11.0 | 0.00 | 0.00 | 0.00 | 96 | |
| 20260505082204 | 62 | 107 | 5.0 | 9.0 | 0.00 | 0.00 | 0.00 | 96 | |
| 20260505081904 | 62 | 140 | 9.0 | 11.0 | 0.00 | 0.00 | 0.00 | 96 | |
| 20260505081603 | 62 | 162 | 4.0 | 7.0 | 0.00 | 0.00 | 0.00 | 96 | |
| 20260505081301 | 62 | 149 | 4.0 | 8.0 | 0.00 | 0.00 | 0.00 | 96 | |
| 20260505081008 | 62 | 140 | 7.0 | 14.0 | 0.00 | 0.00 | 0.00 | 96 | |
| 20260505080708 | 62 | 126 | 4.0 | 8.0 | 0.00 | 0.00 | 0.00 | 97 | |
| 20260505080407 | 62 | 140 | 4.0 | 14.0 | 0.00 | 0.00 | 0.00 | 97 | |
| 20260505080105 | 62 | 102 | 3.0 | 12.0 | 0.00 | 0.00 | 0.00 | 97 | |
| 20260505080009 | 62 | 190 | 4.0 | 11.0 | 0.00 | 0.00 | 0.00 | 97 | |
| 20260505074310 | 62 | 115 | 5.0 | 14.0 | 0.00 | 0.00 | 0.00 | 97 | |
| 20260505074009 | 62 | 134 | 4.0 | 11.0 | 0.00 | 0.00 | 0.00 | 97 | |
| 20260505073709 | 62 | 133 | 7.0 | 14.0 | 0.00 | 0.00 | 0.00 | 97 | |
| 20260505073405 | 62 | 96 | 5.0 | 12.0 | 0.00 | 0.00 | 0.00 | 97 | |
| 20260505073108 | 62 | 151 | 6.0 | 12.0 | 0.00 | 0.00 | 0.00 | 97 | |
| 20260505072813 | 62 | 129 | 9.0 | 12.0 | 0.00 | 0.00 | 0.00 | 97 | |
| 20260505072511 | 62 | 140 | 8.0 | 14.0 | 0.00 | 0.00 | 0.00 | 97 | |
| 20260505072211 | 62 | 115 | 4.0 | 10.0 | 0.00 | 0.00 | 0.00 | 97 | |
| 20260505071909 | 62 | 111 | 11.0 | 17.0 | 0.00 | 0.00 | 0.00 | 97 | |
| 20260505071609 | 62 | 158 | 9.0 | 11.0 | 0.00 | 0.00 | 0.00 | 97 | |
| 20260505071306 | 62 | 135 | 5.0 | 11.0 | 0.00 | 0.00 | 0.00 | 97 | |
| 20260505071004 | 62 | 191 | 9.0 | 12.0 | 0.00 | 0.00 | 0.00 | 97 | |
| 20260505070713 | 63 | 131 | 9.0 | 22.0 | 0.00 | 0.00 | 0.00 | 97 | |
| 20260505070411 | 63 | 102 | 4.0 | 17.0 | 0.00 | 0.00 | 0.00 | 97 | |
| 20260505070112 | 63 | 128 | 7.0 | 9.0 | 0.00 | 0.00 | 0.00 | 97 | |
| 20260505070009 | 63 | 96 | 5.0 | 14.0 | 0.00 | 0.00 | 0.00 | 97 | |
| 20260505064611 | 63 | 149 | 12.0 | 21.0 | 0.00 | 0.00 | 0.00 | 97 | |
| 20260505064302 | 63 | 128 | 5.0 | 14.0 | 0.00 | 0.00 | 0.00 | 97 | |
| 20260505064008 | 63 | 108 | 6.0 | 15.0 | 0.00 | 0.00 | 0.00 | 97 | |
| 20260505063705 | 63 | 96 | 6.0 | 12.0 | 0.00 | 0.00 | 0.00 | 97 | |
| 20260505063408 | 63 | 110 | 6.0 | 9.0 | 0.00 | 0.00 | 0.00 | 97 | |
| 20260505063110 | 63 | 97 | 7.0 | 12.0 | 0.00 | 0.00 | 0.00 | 97 | |
| 20260505062811 | 63 | 117 | 7.0 | 11.0 | 0.00 | 0.00 | 0.00 | 97 | |
| 20260505062508 | 63 | 123 | 6.0 | 16.0 | 0.00 | 0.00 | 0.00 | 97 | |
| 20260505062209 | 63 | 102 | 11.0 | 21.0 | 0.00 | 0.00 | 0.00 | 97 | |
| 20260505061904 | 63 | 148 | 9.0 | 21.0 | 0.00 | 0.00 | 0.00 | 97 | |
| 20260505061610 | 63 | 151 | 10.0 | 15.0 | 0.00 | 0.00 | 0.00 | 97 | |
| 20260505061310 | 63 | 129 | 10.0 | 16.0 | 0.00 | 0.00 | 0.00 | 97 | |
| 20260505061006 | 63 | 108 | 7.0 | 14.0 | 0.00 | 0.00 | 0.00 | 97 | |
| 20260505060706 | 63 | 158 | 9.0 | 15.0 | 0.00 | 0.00 | 0.00 | 97 | |
| 20260505060405 | 63 | 145 | 8.0 | 17.0 | 0.00 | 0.00 | 0.00 | 97 | |
| 20260505060111 | 63 | 108 | 12.0 | 17.0 | 0.00 | 0.00 | 0.00 | 97 | |
| 20260505060010 | 63 | 143 | 6.0 | 12.0 | 0.00 | 0.00 | 0.00 | 97 | |
| 20260505054312 | 63 | 107 | 7.0 | 15.0 | 0.00 | 0.00 | 0.00 | 97 | |
| 20260505054011 | 63 | 126 | 8.0 | 16.0 | 0.00 | 0.00 | 0.00 | 97 | |
| 20260505053714 | 63 | 146 | 9.0 | 16.0 | 0.00 | 0.00 | 0.00 | 97 | |
| 20260505053412 | 63 | 112 | 10.0 | 16.0 | 0.00 | 0.00 | 0.00 | 97 | |
| 20260505053106 | 63 | 112 | 7.0 | 15.0 | 0.00 | 0.00 | 0.00 | 97 | |
| 20260505052816 | 63 | 84 | 7.0 | 15.0 | 0.00 | 0.00 | 0.00 | 97 | |
| 20260505052514 | 63 | 155 | 9.0 | 11.0 | 0.00 | 0.00 | 0.00 | 97 | |
| 20260505052212 | 63 | 125 | 10.0 | 15.0 | 0.00 | 0.00 | 0.00 | 97 | |
| 20260505051908 | 63 | 144 | 7.0 | 16.0 | 0.00 | 0.00 | 0.00 | 97 | |
| 20260505051610 | 63 | 119 | 9.0 | 20.0 | 0.00 | 0.00 | 0.00 | 97 | |
| 20260505051307 | 63 | 139 | 12.0 | 20.0 | 0.00 | 0.00 | 0.00 | 97 | |
| 20260505051006 | 63 | 99 | 10.0 | 15.0 | 0.00 | 0.00 | 0.00 | 97 | |
| 20260505050705 | 63 | 114 | 10.0 | 23.0 | 0.00 | 0.00 | 0.00 | 97 | |
| 20260505050405 | 63 | 129 | 10.0 | 18.0 | 0.00 | 0.00 | 0.00 | 97 | |
| 20260505050105 | 63 | 117 | 10.0 | 21.0 | 0.00 | 0.00 | 0.00 | 97 | |
| 20260505041617 | 63 | 146 | 8.0 | 11.0 | 0.00 | 0.00 | 0.00 | 96 | |
| 20260505041318 | 63 | 97 | 10.0 | 15.0 | 0.00 | 0.00 | 0.00 | 96 | |
| 20260505041008 | 63 | 111 | 4.0 | 12.0 | 0.00 | 0.00 | 0.00 | 97 | |
| 20260505040711 | 63 | 105 | 6.0 | 9.0 | 0.00 | 0.00 | 0.00 | 96 | |
| 20260505040410 | 63 | 106 | 9.0 | 12.0 | 0.00 | 0.00 | 0.00 | 96 | |
| 20260505040109 | 63 | 131 | 8.0 | 10.0 | 0.00 | 0.00 | 0.00 | 96 | |
| 20260505040002 | 64 | 108 | 6.0 | 10.0 | 0.00 | 0.00 | 0.00 | 96 | |
| 20260505034009 | 63 | 122 | 7.0 | 12.0 | 0.00 | 0.00 | 0.00 | 96 | |
| 20260505033708 | 63 | 103 | 6.0 | 10.0 | 0.00 | 0.00 | 0.00 | 96 | |
| 20260505033418 | 63 | 159 | 4.0 | 11.0 | 0.00 | 0.00 | 0.00 | 96 | |
| 20260505033117 | 63 | 68 | 7.0 | 8.0 | 0.00 | 0.00 | 0.00 | 96 | |
| 20260505032816 | 63 | 131 | 8.0 | 12.0 | 0.00 | 0.00 | 0.00 | 96 | |
| 20260505032510 | 63 | 119 | 5.0 | 15.0 | 0.00 | 0.00 | 0.00 | 96 | |
| 20260505032218 | 63 | 121 | 7.0 | 11.0 | 0.00 | 0.00 | 0.00 | 96 | |
| 20260505031919 | 63 | 105 | 6.0 | 10.0 | 0.00 | 0.00 | 0.00 | 96 | |
| 20260505031618 | 63 | 149 | 8.0 | 15.0 | 0.00 | 0.00 | 0.00 | 96 | |
| 20260505031316 | 63 | 132 | 6.0 | 9.0 | 0.00 | 0.00 | 0.00 | 96 | |
| 20260505031016 | 63 | 112 | 6.0 | 12.0 | 0.00 | 0.00 | 0.00 | 96 | |
| 20260505030713 | 63 | 118 | 6.0 | 10.0 | 0.00 | 0.00 | 0.00 | 96 | |
| 20260505030412 | 63 | 166 | 5.0 | 10.0 | 0.00 | 0.00 | 0.00 | 96 | |
| 20260505030108 | 63 | 129 | 2.0 | 12.0 | 0.00 | 0.00 | 0.00 | 96 | |
| 20260505030009 | 63 | 99 | 5.0 | 9.0 | 0.00 | 0.00 | 0.00 | 96 | |
| 20260505024013 | 64 | 125 | 9.0 | 12.0 | 0.00 | 0.00 | 0.00 | 96 | |
| 20260505023710 | 64 | 124 | 4.0 | 6.0 | 0.00 | 0.00 | 0.00 | 95 | |
| 20260505023417 | 64 | 171 | 6.0 | 8.0 | 0.00 | 0.00 | 0.00 | 95 | |
| 20260505023114 | 64 | 104 | 5.0 | 11.0 | 0.00 | 0.00 | 0.00 | 95 | |
| 20260505022811 | 64 | 129 | 6.0 | 10.0 | 0.00 | 0.00 | 0.00 | 95 | |
| 20260505022517 | 64 | 124 | 8.0 | 14.0 | 0.00 | 0.00 | 0.00 | 95 | |
| 20260505022219 | 64 | 137 | 7.0 | 8.0 | 0.00 | 0.00 | 0.00 | 95 | |
| 20260505021916 | 64 | 110 | 4.0 | 10.0 | 0.00 | 0.00 | 0.00 | 95 | |
| 20260505021612 | 64 | 115 | 4.0 | 7.0 | 0.00 | 0.00 | 0.00 | 95 | |
| 20260505021309 | 64 | 103 | 7.0 | 14.0 | 0.00 | 0.00 | 0.00 | 96 | |
| 20260505021018 | 64 | 113 | 6.0 | 8.0 | 0.00 | 0.00 | 0.00 | 95 | |
| 20260505020715 | 64 | 158 | 6.0 | 9.0 | 0.00 | 0.00 | 0.00 | 95 | |
| 20260505020410 | 64 | 121 | 6.0 | 10.0 | 0.00 | 0.00 | 0.00 | 95 | |
| 20260505020119 | 63 | 132 | 6.0 | 9.0 | 0.00 | 0.00 | 0.00 | 95 | |
| 20260505020010 | 64 | 108 | 4.0 | 8.0 | 0.00 | 0.00 | 0.00 | 95 | |
| 20260505014321 | 64 | 114 | 3.0 | 7.0 | 0.00 | 0.00 | 0.00 | 95 | |
| 20260505014018 | 64 | 110 | 6.0 | 8.0 | 0.00 | 0.00 | 0.00 | 95 | |
| 20260505013715 | 64 | 123 | 6.0 | 11.0 | 0.00 | 0.00 | 0.00 | 95 | |
| 20260505013412 | 63 | 99 | 5.0 | 10.0 | 0.00 | 0.00 | 0.00 | 96 | |
| 20260505013121 | 63 | 122 | 3.0 | 7.0 | 0.00 | 0.00 | 0.00 | 96 | |
| 20260505012819 | 63 | 130 | 5.0 | 9.0 | 0.00 | 0.00 | 0.00 | 96 | |
| 20260505012515 | 64 | 114 | 5.0 | 10.0 | 0.00 | 0.00 | 0.00 | 96 | |
| 20260505012221 | 64 | 111 | 2.0 | 11.0 | 0.00 | 0.00 | 0.00 | 96 | |
| 20260505011917 | 64 | 112 | 6.0 | 9.0 | 0.00 | 0.00 | 0.00 | 96 | |
| 20260505011614 | 64 | 121 | 8.0 | 12.0 | 0.00 | 0.00 | 0.00 | 97 | |
| 20260505011312 | 63 | 111 | 8.0 | 12.0 | 0.00 | 0.00 | 0.00 | 97 | |
| 20260505011018 | 63 | 103 | 6.0 | 12.0 | 0.00 | 0.00 | 0.00 | 97 | |
| 20260505010716 | 63 | 126 | 2.0 | 14.0 | 0.00 | 0.00 | 0.00 | 97 | |
| 20260505010414 | 63 | 146 | 8.0 | 12.0 | 0.00 | 0.00 | 0.00 | 97 | |
| 20260505010122 | 63 | 113 | 4.0 | 9.0 | 0.00 | 0.00 | 0.00 | 97 | |
| 20260505010001 | 63 | 97 | 3.0 | 9.0 | 0.00 | 0.00 | 0.00 | 97 | |
| 20260505004014 | 63 | 105 | 5.0 | 10.0 | 0.00 | 0.00 | 0.00 | 97 | |
| 20260505003722 | 63 | 122 | 5.0 | 10.0 | 0.00 | 0.00 | 0.00 | 97 | |
| 20260505003419 | 63 | 114 | 6.0 | 9.0 | 0.00 | 0.00 | 0.00 | 97 | |
| 20260505003113 | 63 | 107 | 6.0 | 8.0 | 0.00 | 0.00 | 0.00 | 97 | |
| 20260505002821 | 63 | 138 | 6.0 | 12.0 | 0.00 | 0.00 | 0.00 | 97 | |
| 20260505002519 | 63 | 126 | 7.0 | 14.0 | 0.00 | 0.00 | 0.00 | 97 | |
| 20260505002217 | 63 | 173 | 6.0 | 9.0 | 0.00 | 0.00 | 0.00 | 97 | |
| 20260505001914 | 63 | 112 | 7.0 | 11.0 | 0.00 | 0.00 | 0.00 | 96 | |
| 20260505001619 | 63 | 119 | 8.0 | 12.0 | 0.00 | 0.00 | 0.00 | 96 | |
| 20260505001314 | 63 | 100 | 6.0 | 14.0 | 0.00 | 0.00 | 0.00 | 96 | |
| 20260505001022 | 63 | 135 | 8.0 | 11.0 | 0.00 | 0.00 | 0.00 | 96 | |
| 20260505000715 | 63 | 149 | 5.0 | 10.0 | 0.00 | 0.00 | 0.00 | 96 | |
| 20260505000420 | 63 | 113 | 5.0 | 12.0 | 0.00 | 0.00 | 0.00 | 96 | |
| 20260505000113 | 63 | 86 | 4.0 | 11.0 | 0.00 | 0.00 | 0.00 | 96 | |
| 20260505000003 | 63 | 110 | 7.0 | 11.0 | 0.00 | 0.00 | 0.00 | 96 | |
| 20260504234021 | 64 | 106 | 5.0 | 7.0 | 0.00 | 0.00 | 0.00 | 96 | |
| 20260504233716 | 64 | 112 | 6.0 | 11.0 | 0.00 | 0.00 | 0.00 | 96 | |
| 20260504233420 | 64 | 117 | 5.0 | 8.0 | 0.00 | 0.00 | 0.00 | 96 | |
| 20260504233116 | 64 | 135 | 5.0 | 10.0 | 0.00 | 0.00 | 0.00 | 96 | |
| 20260504232823 | 63 | 134 | 8.0 | 9.0 | 0.00 | 0.00 | 0.00 | 96 | |
| 20260504232521 | 64 | 134 | 7.0 | 12.0 | 0.00 | 0.00 | 0.00 | 96 | |
| 20260504232218 | 64 | 148 | 8.0 | 12.0 | 0.00 | 0.00 | 0.00 | 96 | |
| 20260504231914 | 64 | 105 | 5.0 | 7.0 | 0.00 | 0.00 | 0.00 | 96 | |
| 20260504231621 | 64 | 160 | 5.0 | 8.0 | 0.00 | 0.00 | 0.00 | 96 | |
| 20260504231319 | 64 | 95 | 9.0 | 10.0 | 0.00 | 0.00 | 0.00 | 96 | |
| 20260504231017 | 64 | 91 | 3.0 | 10.0 | 0.00 | 0.00 | 0.00 | 96 | |
| 20260504230715 | 64 | 108 | 3.0 | 10.0 | 0.00 | 0.00 | 0.00 | 96 | |
| 20260504230423 | 64 | 132 | 7.0 | 9.0 | 0.00 | 0.00 | 0.00 | 96 | |
| 20260504230118 | 64 | 104 | 3.0 | 6.0 | 0.00 | 0.00 | 0.00 | 96 | |
| 20260504230001 | 64 | 141 | 5.0 | 8.0 | 0.00 | 0.00 | 0.00 | 96 | |
| 20260504224021 | 64 | 124 | 2.0 | 9.0 | 0.00 | 0.00 | 0.00 | 96 | |
| 20260504223719 | 64 | 117 | 1.0 | 3.0 | 0.00 | 0.00 | 0.00 | 96 | |
| 20260504223415 | 64 | 128 | 6.0 | 10.0 | 0.00 | 0.00 | 0.00 | 96 | |
| 20260504223114 | 64 | 278 | 2.0 | 3.0 | 0.00 | 0.00 | 0.00 | 96 | |
| 20260504222824 | 64 | 120 | 1.0 | 3.0 | 0.00 | 0.00 | 0.00 | 96 | |
| 20260504222520 | 64 | 98 | 3.0 | 8.0 | 0.00 | 0.00 | 0.00 | 96 | |
| 20260504222217 | 64 | 143 | 3.0 | 8.0 | 0.00 | 0.00 | 0.00 | 96 | |
| 20260504221924 | 64 | 140 | 2.0 | 6.0 | 0.00 | 0.00 | 0.00 | 96 | |
| 20260504221623 | 64 | 99 | 3.0 | 7.0 | 0.00 | 0.00 | 0.00 | 96 | |
| 20260504221320 | 64 | 76 | 5.0 | 9.0 | 0.00 | 0.00 | 0.00 | 96 | |
| 20260504221017 | 64 | 115 | 11.0 | 17.0 | 0.00 | 0.00 | 0.00 | 96 | |
| 20260504220725 | 64 | 100 | 4.0 | 11.0 | 0.00 | 0.00 | 0.00 | 96 | |
| 20260504220422 | 64 | 96 | 4.0 | 8.0 | 0.00 | 0.00 | 0.00 | 96 | |
| 20260504220120 | 64 | 90 | 6.0 | 8.0 | 0.00 | 0.00 | 0.00 | 96 | |
| 20260504220011 | 64 | 97 | 5.0 | 7.0 | 0.00 | 0.00 | 0.00 | 96 | |
| 20260504214026 | 65 | 124 | 3.0 | 6.0 | 0.00 | 0.00 | 0.00 | 96 | |
| 20260504213724 | 65 | 95 | 3.0 | 7.0 | 0.00 | 0.00 | 0.00 | 96 | |
| 20260504213420 | 64 | 70 | 1.0 | 3.0 | 0.00 | 0.00 | 0.00 | 96 | |
| 20260504213117 | 65 | 111 | 4.0 | 9.0 | 0.00 | 0.00 | 0.00 | 96 | |
| 20260504212826 | 65 | 98 | 3.0 | 6.0 | 0.00 | 0.00 | 0.00 | 96 | |
| 20260504212522 | 65 | 100 | 6.0 | 10.0 | 0.00 | 0.00 | 0.00 | 96 | |
| 20260504212220 | 64 | 137 | 5.0 | 8.0 | 0.00 | 0.00 | 0.00 | 96 | |
| 20260504211928 | 65 | 75 | 1.0 | 7.0 | 0.00 | 0.00 | 0.00 | 96 | |
| 20260504211626 | 65 | 125 | 2.0 | 4.0 | 0.00 | 0.00 | 0.00 | 96 | |
| 20260504211323 | 65 | 108 | 2.0 | 4.0 | 0.00 | 0.00 | 0.00 | 96 | |
| 20260504211027 | 65 | 91 | 3.0 | 6.0 | 0.00 | 0.00 | 0.00 | 96 | |
| 20260504210722 | 65 | 69 | 2.0 | 4.0 | 0.00 | 0.00 | 0.00 | 96 | |
| 20260504210419 | 64 | 30 | 1.0 | 3.0 | 0.00 | 0.00 | 0.00 | 96 | |
| 20260504210127 | 65 | 112 | 2.0 | 10.0 | 0.00 | 0.00 | 0.00 | 96 | |
| 20260504210007 | 64 | 154 | 6.0 | 10.0 | 0.00 | 0.00 | 0.00 | 96 | |
| 20260504204027 | 65 | 62 | 1.0 | 6.0 | 0.00 | 0.00 | 0.00 | 95 | |
| 20260504203722 | 65 | 121 | 6.0 | 9.0 | 0.00 | 0.00 | 0.00 | 95 | |
| 20260504203419 | 65 | 97 | 7.0 | 11.0 | 0.00 | 0.00 | 0.00 | 95 | |
| 20260504203127 | 65 | 71 | 2.0 | 9.0 | 0.00 | 0.00 | 0.00 | 95 | |
| 20260504202824 | 65 | 100 | 4.0 | 6.0 | 0.00 | 0.00 | 0.00 | 95 | |
| 20260504202521 | 64 | 127 | 10.0 | 14.0 | 0.00 | 0.00 | 0.00 | 95 | |
| 20260504202228 | 65 | 97 | 4.0 | 14.0 | 0.00 | 0.00 | 0.00 | 95 | |
| 20260504201926 | 64 | 138 | 5.0 | 11.0 | 0.00 | 0.00 | 0.00 | 95 | |
| 20260504201622 | 65 | 116 | 5.0 | 12.0 | 0.00 | 0.00 | 0.00 | 95 | |
| 20260504201329 | 65 | 123 | 4.0 | 14.0 | 0.00 | 0.00 | 0.00 | 95 | |
| 20260504201027 | 65 | 127 | 5.0 | 9.0 | 0.00 | 0.00 | 0.00 | 95 | |
| 20260504200728 | 65 | 75 | 4.0 | 8.0 | 0.00 | 0.00 | 0.00 | 95 | |
| 20260504200424 | 65 | 122 | 7.0 | 11.0 | 0.00 | 0.00 | 0.00 | 94 | |
| 20260504200121 | 65 | 107 | 6.0 | 12.0 | 0.00 | 0.00 | 0.00 | 94 | |
| 20260504200002 | 66 | 80 | 7.0 | 16.0 | 0.00 | 0.00 | 0.00 | 94 | |
| 20260504194320 | 66 | 91 | 1.0 | 7.0 | 0.00 | 0.00 | 0.00 | 92 | |
| 20260504194027 | 66 | 95 | 1.0 | 6.0 | 0.00 | 0.00 | 0.00 | 91 | |
| 20260504193721 | 66 | 265 | 8.0 | 14.0 | 0.00 | 0.00 | 0.00 | 91 | |
| 20260504193429 | 66 | 73 | 3.0 | 3.0 | 0.00 | 0.00 | 0.00 | 92 | |
| 20260504193125 | 66 | 128 | 6.0 | 8.0 | 0.00 | 0.00 | 0.00 | 91 | |
| 20260504192821 | 66 | 87 | 4.0 | 7.0 | 0.00 | 0.00 | 0.00 | 91 | |
| 20260504192530 | 65 | 235 | 4.0 | 4.0 | 0.00 | 0.00 | 0.00 | 92 | |
| 20260504192227 | 66 | 114 | 5.0 | 12.0 | 0.00 | 0.00 | 0.00 | 92 | |
| 20260504191925 | 66 | 86 | 2.0 | 6.0 | 0.00 | 0.00 | 0.00 | 93 | |
| 20260504191623 | 66 | 71 | 4.0 | 7.0 | 0.00 | 0.00 | 0.00 | 93 | |
| 20260504191327 | 66 | 95 | 1.0 | 2.0 | 0.00 | 0.00 | 0.00 | 91 | |
| 20260504191029 | 66 | 125 | 8.0 | 10.0 | 0.00 | 0.00 | 0.00 | 91 | |
| 20260504190725 | 66 | 232 | 6.0 | 11.0 | 0.00 | 0.00 | 0.00 | 88 | |
| 20260504190424 | 65 | 66 | 6.0 | 10.0 | 0.00 | 0.00 | 0.00 | 88 | |
| 20260504190122 | 66 | 109 | 5.0 | 9.0 | 0.00 | 0.00 | 0.00 | 90 | |
| 20260504190002 | 66 | 124 | 5.0 | 7.0 | 0.00 | 0.00 | 0.00 | 89 | |
| 20260504184028 | 67 | 60 | 6.0 | 8.0 | 0.00 | 0.00 | 0.00 | 89 | |
| 20260504183727 | 66 | 107 | 7.0 | 15.0 | 0.00 | 0.00 | 0.00 | 89 | |
| 20260504183427 | 66 | 93 | 3.0 | 14.0 | 0.00 | 0.00 | 0.00 | 89 | |
| 20260504183125 | 66 | 73 | 6.0 | 12.0 | 0.00 | 0.00 | 0.00 | 90 | |
| 20260504182822 | 67 | 31 | 2.0 | 9.0 | 0.00 | 0.00 | 0.00 | 90 | |
| 20260504182521 | 67 | 110 | 2.0 | 6.0 | 0.00 | 0.00 | 0.00 | 87 | |
| 20260504182222 | 67 | 102 | 6.0 | 9.0 | 0.00 | 0.00 | 0.00 | 89 | |
| 20260504181931 | 67 | 66 | 5.0 | 7.0 | 0.00 | 0.00 | 0.00 | 86 | |
| 20260504181631 | 67 | 338 | 4.0 | 12.0 | 0.00 | 0.00 | 0.00 | 88 | |
| 20260504181330 | 66 | 99 | 4.0 | 7.0 | 0.00 | 0.00 | 0.00 | 89 | |
| 20260504181030 | 66 | 104 | 4.0 | 15.0 | 0.00 | 0.00 | 0.00 | 86 | |
| 20260504180730 | 66 | 79 | 6.0 | 8.0 | 0.00 | 0.00 | 0.00 | 89 | |
| 20260504180429 | 66 | 102 | 3.0 | 11.0 | 0.00 | 0.00 | 0.00 | 88 | |
| 20260504180129 | 66 | 7 | 1.0 | 4.0 | 0.00 | 0.00 | 0.00 | 89 | |
| 20260504180010 | 67 | 140 | 6.0 | 14.0 | 0.00 | 0.00 | 0.00 | 86 | |
| 20260504174031 | 67 | 74 | 2.0 | 8.0 | 0.00 | 0.00 | 0.00 | 86 | |
| 20260504173730 | 68 | 73 | 4.0 | 7.0 | 0.00 | 0.00 | 0.00 | 84 | |
| 20260504173429 | 67 | 111 | 5.0 | 6.0 | 0.00 | 0.00 | 0.00 | 84 | |
| 20260504173125 | 68 | 54 | 10.0 | 12.0 | 0.00 | 0.00 | 0.00 | 82 | |
| 20260504172823 | 68 | 74 | 9.0 | 10.0 | 0.00 | 0.00 | 0.00 | 80 | |
| 20260504172522 | 68 | 136 | 3.0 | 7.0 | 0.00 | 0.00 | 0.00 | 82 | |
| 20260504172233 | 68 | 96 | 2.0 | 8.0 | 0.00 | 0.00 | 0.00 | 82 | |
| 20260504171928 | 69 | 67 | 6.0 | 14.0 | 0.00 | 0.00 | 0.00 | 77 | |
| 20260504171633 | 69 | 113 | 5.0 | 8.0 | 0.00 | 0.00 | 0.00 | 78 | |
| 20260504171333 | 68 | 121 | 4.0 | 6.0 | 0.00 | 0.00 | 0.00 | 80 | |
| 20260504171032 | 68 | 339 | 3.0 | 4.0 | 0.00 | 0.00 | 0.00 | 78 | |
| 20260504170729 | 68 | 84 | 1.0 | 10.0 | 0.00 | 0.00 | 0.00 | 79 | |
| 20260504170428 | 68 | 86 | 4.0 | 10.0 | 0.00 | 0.00 | 0.00 | 79 | |
| 20260504170128 | 68 | 108 | 6.0 | 10.0 | 0.00 | 0.00 | 0.00 | 78 | |
| 20260504160426 | 68 | 119 | 6.0 | 14.0 | 0.00 | 0.00 | 0.00 | 75 | |
| 20260504160133 | 68 | 80 | 10.0 | 12.0 | 0.00 | 0.00 | 0.00 | 75 | |
| 20260504151029 | 66 | 27 | 6.0 | 17.0 | 0.00 | 0.00 | 0.00 | 85 | |
| 20260504150727 | 66 | 84 | 5.0 | 20.0 | 0.00 | 0.00 | 0.00 | 86 | |
| 20260504150436 | 66 | 128 | 6.0 | 11.0 | 0.00 | 0.00 | 0.00 | 84 | |
| 20260504150136 | 67 | 69 | 5.0 | 14.0 | 0.00 | 0.00 | 0.00 | 84 | |
| 20260504141329 | 66 | 116 | 8.0 | 12.0 | 0.00 | 0.00 | 0.00 | 87 | |
| 20260504141039 | 66 | 118 | 8.0 | 15.0 | 0.00 | 0.00 | 0.00 | 88 | |
| 20260504140738 | 66 | 84 | 10.0 | 12.0 | 0.00 | 0.00 | 0.00 | 87 | |
| 20260504140433 | 66 | 103 | 9.0 | 18.0 | 0.00 | 0.00 | 0.00 | 85 | |
| 20260504140133 | 65 | 99 | 5.0 | 10.0 | 0.00 | 0.00 | 0.00 | 86 | |
| 20260504130430 | 65 | 135 | 8.0 | 14.0 | 0.00 | 0.00 | 0.00 | 82 | |
| 20260504130140 | 65 | 111 | 7.0 | 12.0 | 0.00 | 0.00 | 0.00 | 85 | |
| 20260504120137 | 65 | 134 | 8.0 | 20.0 | 0.00 | 0.00 | 0.00 | 70 | |
| 20260504110436 | 64 | 121 | 6.0 | 11.0 | 0.00 | 0.00 | 0.00 | 83 | |
| 20260504110136 | 63 | 111 | 6.0 | 16.0 | 0.00 | 0.00 | 0.00 | 83 | |
| 20260504100435 | 62 | 115 | 5.0 | 8.0 | 0.00 | 0.00 | 0.00 | 95 |